sensor_id;sensor_type;location;lat;lon;timestamp;P1;durP1;ratioP1;P2;durP2;ratioP2
70535;SDS011;58089;48.752;11.338;2022-12-20T05:02:31;56.95;;;25.20;;
70535;SDS011;58089;48.752;11.338;2022-12-20T05:04:57;52.13;;;24.30;;
70535;SDS011;58089;48.752;11.338;2022-12-20T05:07:22;49.23;;;22.97;;
70535;SDS011;58089;48.752;11.338;2022-12-20T05:09:47;57.67;;;25.23;;
70535;SDS011;58089;48.752;11.338;2022-12-20T05:12:13;53.47;;;24.93;;
70535;SDS011;58089;48.752;11.338;2022-12-20T05:14:38;57.33;;;25.77;;
70535;SDS011;58089;48.752;11.338;2022-12-20T05:17:03;51.07;;;25.07;;
70535;SDS011;58089;48.752;11.338;2022-12-20T05:19:28;48.90;;;24.30;;
70535;SDS011;58089;48.752;11.338;2022-12-20T05:21:54;51.17;;;24.40;;
70535;SDS011;58089;48.752;11.338;2022-12-20T05:24:45;52.47;;;24.55;;
70535;SDS011;58089;48.752;11.338;2022-12-20T05:27:29;63.13;;;26.98;;
70535;SDS011;58089;48.752;11.338;2022-12-20T05:29:54;51.40;;;24.87;;
70535;SDS011;58089;48.752;11.338;2022-12-20T05:32:19;48.40;;;23.07;;
70535;SDS011;58089;48.752;11.338;2022-12-20T05:34:45;49.67;;;24.77;;
70535;SDS011;58089;48.752;11.338;2022-12-20T05:37:10;46.97;;;22.87;;
70535;SDS011;58089;48.752;11.338;2022-12-20T05:39:35;47.17;;;23.83;;
70535;SDS011;58089;48.752;11.338;2022-12-20T05:42:01;47.60;;;23.80;;
70535;SDS011;58089;48.752;11.338;2022-12-20T05:44:26;44.17;;;21.40;;
70535;SDS011;58089;48.752;11.338;2022-12-20T05:46:51;44.53;;;22.00;;
70535;SDS011;58089;48.752;11.338;2022-12-20T05:49:16;48.30;;;23.17;;
70535;SDS011;58089;48.752;11.338;2022-12-20T05:51:42;45.57;;;24.43;;
70535;SDS011;58089;48.752;11.338;2022-12-20T05:54:07;49.70;;;23.87;;
70535;SDS011;58089;48.752;11.338;2022-12-20T05:56:32;45.30;;;22.93;;
70535;SDS011;58089;48.752;11.338;2022-12-20T05:58:58;43.33;;;22.60;;
70535;SDS011;58089;48.752;11.338;2022-12-20T06:01:23;41.78;;;22.23;;
70535;SDS011;58089;48.752;11.338;2022-12-20T06:03:49;42.00;;;21.70;;
70535;SDS011;58089;48.752;11.338;2022-12-20T06:06:15;40.65;;;20.75;;
70535;SDS011;58089;48.752;11.338;2022-12-20T06:08:40;42.70;;;22.43;;
70535;SDS011;58089;48.752;11.338;2022-12-20T06:11:05;43.20;;;23.10;;
70535;SDS011;58089;48.752;11.338;2022-12-20T06:13:31;42.63;;;22.03;;
70535;SDS011;58089;48.752;11.338;2022-12-20T06:15:56;46.27;;;22.73;;
70535;SDS011;58089;48.752;11.338;2022-12-20T06:18:21;45.00;;;22.13;;
70535;SDS011;58089;48.752;11.338;2022-12-20T06:20:50;39.63;;;21.50;;
70535;SDS011;58089;48.752;11.338;2022-12-20T06:23:16;46.97;;;23.57;;
70535;SDS011;58089;48.752;11.338;2022-12-20T06:25:41;49.03;;;22.03;;
70535;SDS011;58089;48.752;11.338;2022-12-20T06:28:07;41.55;;;22.10;;
70535;SDS011;58089;48.752;11.338;2022-12-20T06:30:33;46.27;;;22.93;;
70535;SDS011;58089;48.752;11.338;2022-12-20T06:32:59;43.92;;;21.30;;
70535;SDS011;58089;48.752;11.338;2022-12-20T06:35:24;42.70;;;22.87;;
70535;SDS011;58089;48.752;11.338;2022-12-20T06:37:49;45.57;;;22.10;;
70535;SDS011;58089;48.752;11.338;2022-12-20T06:40:15;40.37;;;21.87;;
70535;SDS011;58089;48.752;11.338;2022-12-20T06:42:40;44.07;;;21.97;;
70535;SDS011;58089;48.752;11.338;2022-12-20T06:45:06;42.47;;;21.73;;
70535;SDS011;58089;48.752;11.338;2022-12-20T06:47:31;45.33;;;21.83;;
70535;SDS011;58089;48.752;11.338;2022-12-20T06:49:57;40.90;;;20.93;;
70535;SDS011;58089;48.752;11.338;2022-12-20T06:52:22;47.80;;;22.17;;
70535;SDS011;58089;48.752;11.338;2022-12-20T06:54:48;43.27;;;21.37;;
70535;SDS011;58089;48.752;11.338;2022-12-20T06:57:13;40.45;;;21.45;;
70535;SDS011;58089;48.752;11.338;2022-12-20T06:59:38;39.43;;;21.10;;
70535;SDS011;58089;48.752;11.338;2022-12-20T15:23:31;54.15;;;28.38;;
70535;SDS011;58089;48.752;11.338;2022-12-20T15:25:56;57.05;;;27.85;;
70535;SDS011;58089;48.752;11.338;2022-12-20T15:28:22;55.07;;;26.90;;
70535;SDS011;58089;48.752;11.338;2022-12-20T15:30:49;52.22;;;24.58;;
70535;SDS011;58089;48.752;11.338;2022-12-20T15:33:16;45.47;;;22.17;;
70535;SDS011;58089;48.752;11.338;2022-12-20T15:35:43;43.78;;;21.50;;
70535;SDS011;58089;48.752;11.338;2022-12-20T15:38:17;45.28;;;22.13;;
70535;SDS011;58089;48.752;11.338;2022-12-20T15:40:47;48.47;;;22.98;;
70535;SDS011;58089;48.752;11.338;2022-12-20T15:43:17;42.03;;;22.17;;
70535;SDS011;58089;48.752;11.338;2022-12-20T15:45:45;45.90;;;24.43;;
70535;SDS011;58089;48.752;11.338;2022-12-20T15:48:13;58.70;;;32.20;;
70535;SDS011;58089;48.752;11.338;2022-12-20T15:50:41;50.78;;;28.90;;
70535;SDS011;58089;48.752;11.338;2022-12-20T15:53:11;50.05;;;28.38;;
70535;SDS011;58089;48.752;11.338;2022-12-20T15:55:38;48.05;;;26.38;;
70535;SDS011;58089;48.752;11.338;2022-12-20T15:58:03;45.37;;;23.70;;
70535;SDS011;58089;48.752;11.338;2022-12-20T16:00:28;44.80;;;24.00;;
70535;SDS011;58089;48.752;11.338;2022-12-20T16:02:54;43.50;;;21.77;;
70535;SDS011;58089;48.752;11.338;2022-12-20T16:05:21;43.08;;;21.52;;
70535;SDS011;58089;48.752;11.338;2022-12-20T16:07:46;42.43;;;23.43;;
70535;SDS011;58089;48.752;11.338;2022-12-20T16:10:12;45.90;;;24.80;;
70535;SDS011;58089;48.752;11.338;2022-12-20T16:12:38;50.63;;;25.52;;
70535;SDS011;58089;48.752;11.338;2022-12-20T16:15:04;51.90;;;26.80;;
70535;SDS011;58089;48.752;11.338;2022-12-20T16:17:29;53.67;;;24.77;;
70535;SDS011;58089;48.752;11.338;2022-12-20T16:19:54;50.23;;;24.27;;
70535;SDS011;58089;48.752;11.338;2022-12-20T16:22:20;58.53;;;27.37;;
70535;SDS011;58089;48.752;11.338;2022-12-20T16:24:47;73.70;;;32.78;;
70535;SDS011;58089;48.752;11.338;2022-12-20T16:27:12;92.90;;;39.30;;
70535;SDS011;58089;48.752;11.338;2022-12-20T16:29:38;97.93;;;42.47;;
70535;SDS011;58089;48.752;11.338;2022-12-20T16:32:14;100.82;;;43.92;;
70535;SDS011;58089;48.752;11.338;2022-12-20T16:34:41;79.75;;;39.65;;
70535;SDS011;58089;48.752;11.338;2022-12-20T16:37:06;67.60;;;34.47;;
70535;SDS011;58089;48.752;11.338;2022-12-20T16:39:32;70.57;;;36.63;;
70535;SDS011;58089;48.752;11.338;2022-12-20T16:41:57;63.80;;;31.90;;
70535;SDS011;58089;48.752;11.338;2022-12-20T16:44:22;56.70;;;28.65;;
70535;SDS011;58089;48.752;11.338;2022-12-20T16:46:48;48.43;;;26.30;;
70535;SDS011;58089;48.752;11.338;2022-12-20T16:49:13;46.17;;;25.17;;
70535;SDS011;58089;48.752;11.338;2022-12-20T16:51:42;49.60;;;26.00;;
70535;SDS011;58089;48.752;11.338;2022-12-20T16:54:12;42.17;;;23.65;;
70535;SDS011;58089;48.752;11.338;2022-12-20T16:56:43;63.50;;;30.47;;
70535;SDS011;58089;48.752;11.338;2022-12-20T16:59:09;46.65;;;24.58;;
70535;SDS011;58089;48.752;11.338;2022-12-20T17:01:37;45.90;;;25.50;;
70535;SDS011;58089;48.752;11.338;2022-12-20T17:04:03;46.17;;;22.95;;
70535;SDS011;58089;48.752;11.338;2022-12-20T17:06:29;44.65;;;23.25;;
70535;SDS011;58089;48.752;11.338;2022-12-20T17:08:55;39.00;;;21.90;;
70535;SDS011;58089;48.752;11.338;2022-12-20T17:13:47;43.75;;;21.80;;
70535;SDS011;58089;48.752;11.338;2022-12-20T17:16:13;48.70;;;25.27;;
70535;SDS011;58089;48.752;11.338;2022-12-20T17:18:40;57.05;;;27.63;;
70535;SDS011;58089;48.752;11.338;2022-12-20T17:24:00;47.17;;;24.52;;
70535;SDS011;58089;48.752;11.338;2022-12-20T17:26:27;48.08;;;24.67;;
70535;SDS011;58089;48.752;11.338;2022-12-20T17:28:54;50.45;;;23.92;;
70535;SDS011;58089;48.752;11.338;2022-12-20T17:31:37;47.25;;;24.00;;
70535;SDS011;58089;48.752;11.338;2022-12-20T17:34:15;45.53;;;22.57;;
70535;SDS011;58089;48.752;11.338;2022-12-20T17:36:41;45.80;;;21.63;;
70535;SDS011;58089;48.752;11.338;2022-12-20T17:39:06;45.17;;;22.40;;
70535;SDS011;58089;48.752;11.338;2022-12-20T17:41:32;45.23;;;22.13;;
70535;SDS011;58089;48.752;11.338;2022-12-20T17:43:58;54.65;;;27.73;;
70535;SDS011;58089;48.752;11.338;2022-12-20T17:46:24;56.13;;;27.08;;
70535;SDS011;58089;48.752;11.338;2022-12-20T17:48:50;56.47;;;27.87;;
70535;SDS011;58089;48.752;11.338;2022-12-20T17:51:17;55.30;;;28.48;;
70535;SDS011;58089;48.752;11.338;2022-12-20T17:53:49;58.53;;;30.77;;
70535;SDS011;58089;48.752;11.338;2022-12-20T17:56:16;63.87;;;31.33;;
70535;SDS011;58089;48.752;11.338;2022-12-20T17:58:43;60.45;;;30.45;;
70535;SDS011;58089;48.752;11.338;2022-12-20T18:01:16;57.58;;;29.60;;
70535;SDS011;58089;48.752;11.338;2022-12-20T18:03:47;54.90;;;27.13;;
70535;SDS011;58089;48.752;11.338;2022-12-20T18:06:13;49.67;;;25.42;;
70535;SDS011;58089;48.752;11.338;2022-12-20T18:08:38;47.53;;;25.40;;
70535;SDS011;58089;48.752;11.338;2022-12-20T18:11:05;51.47;;;25.13;;
70535;SDS011;58089;48.752;11.338;2022-12-20T18:13:30;44.57;;;21.93;;
70535;SDS011;58089;48.752;11.338;2022-12-20T18:15:56;43.97;;;22.75;;
70535;SDS011;58089;48.752;11.338;2022-12-20T18:18:21;42.37;;;21.27;;
70535;SDS011;58089;48.752;11.338;2022-12-20T18:20:46;43.13;;;21.60;;
70535;SDS011;58089;48.752;11.338;2022-12-20T18:23:12;39.97;;;21.33;;
70535;SDS011;58089;48.752;11.338;2022-12-20T18:25:37;46.33;;;21.27;;
70535;SDS011;58089;48.752;11.338;2022-12-20T18:28:02;45.63;;;22.40;;
70535;SDS011;58089;48.752;11.338;2022-12-20T18:30:28;46.47;;;24.87;;
70535;SDS011;58089;48.752;11.338;2022-12-20T18:32:54;46.50;;;25.98;;
70535;SDS011;58089;48.752;11.338;2022-12-20T18:35:19;43.37;;;22.73;;
70535;SDS011;58089;48.752;11.338;2022-12-20T18:37:44;44.63;;;22.70;;
70535;SDS011;58089;48.752;11.338;2022-12-20T18:40:10;42.00;;;21.30;;
70535;SDS011;58089;48.752;11.338;2022-12-20T18:42:35;44.03;;;21.15;;
70535;SDS011;58089;48.752;11.338;2022-12-20T18:45:01;38.77;;;20.53;;
70535;SDS011;58089;48.752;11.338;2022-12-20T18:47:26;51.07;;;26.63;;
70535;SDS011;58089;48.752;11.338;2022-12-20T18:49:52;56.00;;;29.17;;
70535;SDS011;58089;48.752;11.338;2022-12-20T18:52:18;57.23;;;28.87;;
70535;SDS011;58089;48.752;11.338;2022-12-20T18:54:43;50.17;;;28.37;;
70535;SDS011;58089;48.752;11.338;2022-12-20T18:57:09;47.37;;;25.37;;
70535;SDS011;58089;48.752;11.338;2022-12-20T18:59:34;48.30;;;25.70;;
70535;SDS011;58089;48.752;11.338;2022-12-20T19:02:00;51.50;;;27.47;;
70535;SDS011;58089;48.752;11.338;2022-12-20T19:04:25;75.17;;;37.97;;
70535;SDS011;58089;48.752;11.338;2022-12-20T19:06:50;86.27;;;45.87;;
70535;SDS011;58089;48.752;11.338;2022-12-20T19:09:16;77.20;;;43.08;;
70535;SDS011;58089;48.752;11.338;2022-12-20T19:11:41;63.37;;;31.60;;
70535;SDS011;58089;48.752;11.338;2022-12-20T19:14:07;63.80;;;34.37;;
70535;SDS011;58089;48.752;11.338;2022-12-20T19:16:33;58.20;;;30.08;;
70535;SDS011;58089;48.752;11.338;2022-12-20T19:18:59;55.40;;;28.65;;
70535;SDS011;58089;48.752;11.338;2022-12-20T19:21:26;61.80;;;32.57;;
70535;SDS011;58089;48.752;11.338;2022-12-20T19:23:54;64.53;;;32.42;;
70535;SDS011;58089;48.752;11.338;2022-12-20T19:26:22;58.75;;;31.15;;
70535;SDS011;58089;48.752;11.338;2022-12-20T19:28:49;55.85;;;30.13;;
70535;SDS011;58089;48.752;11.338;2022-12-20T19:31:19;63.65;;;28.42;;
70535;SDS011;58089;48.752;11.338;2022-12-20T19:33:48;48.30;;;26.80;;
70535;SDS011;58089;48.752;11.338;2022-12-20T19:36:17;50.42;;;25.70;;
70535;SDS011;58089;48.752;11.338;2022-12-20T19:38:47;64.18;;;28.48;;
70535;SDS011;58089;48.752;11.338;2022-12-20T19:41:15;53.03;;;28.52;;
70535;SDS011;58089;48.752;11.338;2022-12-20T19:43:41;64.03;;;32.38;;
70535;SDS011;58089;48.752;11.338;2022-12-20T19:46:06;56.13;;;27.43;;
70535;SDS011;58089;48.752;11.338;2022-12-20T19:48:32;51.20;;;25.00;;
70535;SDS011;58089;48.752;11.338;2022-12-20T19:51:05;54.05;;;26.10;;
70535;SDS011;58089;48.752;11.338;2022-12-20T19:53:34;61.83;;;30.83;;
70535;SDS011;58089;48.752;11.338;2022-12-20T19:56:00;49.83;;;24.77;;
70535;SDS011;58089;48.752;11.338;2022-12-20T19:58:25;64.73;;;27.80;;
70535;SDS011;58089;48.752;11.338;2022-12-20T20:00:50;49.73;;;24.30;;
70535;SDS011;58089;48.752;11.338;2022-12-20T20:03:15;82.30;;;45.73;;
70535;SDS011;58089;48.752;11.338;2022-12-20T20:05:41;66.53;;;34.17;;
70535;SDS011;58089;48.752;11.338;2022-12-20T20:08:06;47.80;;;24.60;;
70535;SDS011;58089;48.752;11.338;2022-12-20T20:10:32;45.90;;;23.17;;
70535;SDS011;58089;48.752;11.338;2022-12-20T20:12:58;50.10;;;24.43;;
70535;SDS011;58089;48.752;11.338;2022-12-20T20:15:23;47.40;;;22.77;;
70535;SDS011;58089;48.752;11.338;2022-12-20T20:17:48;48.43;;;22.67;;
70535;SDS011;58089;48.752;11.338;2022-12-20T20:20:14;51.70;;;23.42;;
70535;SDS011;58089;48.752;11.338;2022-12-20T20:22:40;51.10;;;23.63;;
70535;SDS011;58089;48.752;11.338;2022-12-20T20:25:05;47.40;;;23.00;;
70535;SDS011;58089;48.752;11.338;2022-12-20T20:27:31;45.60;;;23.53;;
70535;SDS011;58089;48.752;11.338;2022-12-20T20:29:56;51.50;;;25.87;;
70535;SDS011;58089;48.752;11.338;2022-12-20T20:32:21;46.33;;;24.33;;
70535;SDS011;58089;48.752;11.338;2022-12-20T20:34:47;46.70;;;22.93;;
70535;SDS011;58089;48.752;11.338;2022-12-20T20:37:12;47.35;;;23.95;;
70535;SDS011;58089;48.752;11.338;2022-12-20T20:39:38;44.27;;;22.13;;
70535;SDS011;58089;48.752;11.338;2022-12-20T20:42:03;46.30;;;23.47;;
70535;SDS011;58089;48.752;11.338;2022-12-20T20:44:28;47.33;;;24.23;;
70535;SDS011;58089;48.752;11.338;2022-12-20T20:46:54;48.27;;;23.97;;
70535;SDS011;58089;48.752;11.338;2022-12-20T20:49:19;47.57;;;23.57;;
70535;SDS011;58089;48.752;11.338;2022-12-20T20:51:44;41.40;;;20.80;;
70535;SDS011;58089;48.752;11.338;2022-12-20T20:54:10;45.30;;;21.20;;
70535;SDS011;58089;48.752;11.338;2022-12-20T20:56:35;44.83;;;22.53;;
70535;SDS011;58089;48.752;11.338;2022-12-20T20:59:00;57.37;;;31.40;;
70535;SDS011;58089;48.752;11.338;2022-12-20T21:01:26;50.80;;;23.90;;
70535;SDS011;58089;48.752;11.338;2022-12-20T21:03:51;44.93;;;21.27;;
70535;SDS011;58089;48.752;11.338;2022-12-20T21:06:16;41.73;;;20.40;;
70535;SDS011;58089;48.752;11.338;2022-12-20T21:08:41;42.80;;;21.90;;
70535;SDS011;58089;48.752;11.338;2022-12-20T21:11:07;46.80;;;22.13;;
70535;SDS011;58089;48.752;11.338;2022-12-20T21:13:32;67.33;;;29.70;;
70535;SDS011;58089;48.752;11.338;2022-12-20T21:16:11;55.20;;;25.23;;
70535;SDS011;58089;48.752;11.338;2022-12-20T21:18:39;67.50;;;30.13;;
70535;SDS011;58089;48.752;11.338;2022-12-20T21:21:06;98.80;;;40.10;;
70535;SDS011;58089;48.752;11.338;2022-12-20T21:23:32;68.68;;;30.17;;
70535;SDS011;58089;48.752;11.338;2022-12-20T21:25:57;46.43;;;22.67;;
70535;SDS011;58089;48.752;11.338;2022-12-20T21:28:23;49.53;;;22.77;;
70535;SDS011;58089;48.752;11.338;2022-12-20T21:30:56;43.60;;;21.37;;
70535;SDS011;58089;48.752;11.338;2022-12-20T21:33:22;43.70;;;22.05;;
70535;SDS011;58089;48.752;11.338;2022-12-20T21:35:48;45.90;;;22.10;;
70535;SDS011;58089;48.752;11.338;2022-12-20T21:38:28;50.50;;;24.30;;
70535;SDS011;58089;48.752;11.338;2022-12-20T21:41:00;41.77;;;21.43;;
70535;SDS011;58089;48.752;11.338;2022-12-20T21:43:27;40.67;;;19.30;;
70535;SDS011;58089;48.752;11.338;2022-12-20T21:45:52;43.05;;;21.70;;
70535;SDS011;58089;48.752;11.338;2022-12-20T21:48:18;49.40;;;22.50;;
70535;SDS011;58089;48.752;11.338;2022-12-20T21:50:43;45.00;;;22.30;;
70535;SDS011;58089;48.752;11.338;2022-12-20T21:53:09;47.00;;;22.93;;
70535;SDS011;58089;48.752;11.338;2022-12-20T21:55:34;46.87;;;23.20;;
70535;SDS011;58089;48.752;11.338;2022-12-20T21:57:59;47.83;;;23.20;;
70535;SDS011;58089;48.752;11.338;2022-12-20T22:00:25;48.47;;;23.83;;
70535;SDS011;58089;48.752;11.338;2022-12-20T22:02:50;47.33;;;23.30;;
70535;SDS011;58089;48.752;11.338;2022-12-20T22:05:15;47.37;;;23.43;;
70535;SDS011;58089;48.752;11.338;2022-12-20T22:07:40;52.00;;;24.97;;
70535;SDS011;58089;48.752;11.338;2022-12-20T22:10:06;54.40;;;24.97;;
70535;SDS011;58089;48.752;11.338;2022-12-20T22:12:32;52.35;;;23.67;;
70535;SDS011;58089;48.752;11.338;2022-12-20T22:14:57;46.93;;;22.70;;
70535;SDS011;58089;48.752;11.338;2022-12-20T22:17:22;52.50;;;24.83;;
70535;SDS011;58089;48.752;11.338;2022-12-20T22:19:48;46.30;;;21.40;;
70535;SDS011;58089;48.752;11.338;2022-12-20T22:22:14;46.92;;;21.95;;
70535;SDS011;58089;48.752;11.338;2022-12-20T22:24:40;45.78;;;21.50;;
70535;SDS011;58089;48.752;11.338;2022-12-20T22:27:06;45.70;;;21.00;;
70535;SDS011;58089;48.752;11.338;2022-12-20T22:29:31;44.93;;;21.33;;
70535;SDS011;58089;48.752;11.338;2022-12-20T22:31:56;44.33;;;20.90;;
70535;SDS011;58089;48.752;11.338;2022-12-20T22:34:21;49.20;;;21.03;;
70535;SDS011;58089;48.752;11.338;2022-12-20T22:36:47;46.70;;;20.63;;
70535;SDS011;58089;48.752;11.338;2022-12-20T22:39:12;46.23;;;21.20;;
70535;SDS011;58089;48.752;11.338;2022-12-20T22:41:38;43.88;;;21.15;;
70535;SDS011;58089;48.752;11.338;2022-12-20T22:44:03;43.00;;;20.83;;
70535;SDS011;58089;48.752;11.338;2022-12-20T22:46:29;46.30;;;21.67;;
70535;SDS011;58089;48.752;11.338;2022-12-20T22:48:54;47.70;;;21.90;;
70535;SDS011;58089;48.752;11.338;2022-12-20T22:51:20;48.28;;;22.23;;
70535;SDS011;58089;48.752;11.338;2022-12-20T22:53:46;44.45;;;21.10;;
70535;SDS011;58089;48.752;11.338;2022-12-20T22:56:12;50.60;;;22.73;;
70535;SDS011;58089;48.752;11.338;2022-12-20T22:58:38;48.50;;;23.77;;
